Time;durP1;ratioP1;P1;durP2;ratioP2;P2;SDS_P1;SDS_P2;PMS_P1;PMS_P2;Temp;Humidity;BMP_temperature;BMP_pressure;BME280_temperature;BME280_humidity;BME280_pressure;Samples;Min_cycle;Max_cycle;Signal;HPM_P1;HPM_P2
2022/05/27 00:02:09;;;;;;;1.50;0.80;;;;;;;11.78;80.89;98155.13;6281772;28;20221;-46
2022/05/27 00:05:12;;;;;;;2.07;0.80;;;;;;;11.71;80.80;98145.97;6281065;28;20244;-47
2022/05/27 00:08:14;;;;;;;1.63;1.03;;;;;;;11.68;80.71;98147.03;6281595;28;20232;-46
2022/05/27 00:11:17;;;;;;;0.80;0.60;;;;;;;11.68;80.83;98146.22;6279300;28;20230;-44
2022/05/27 00:14:20;;;;;;;2.70;0.80;;;;;;;11.64;80.64;98142.97;6280882;28;20244;-46
2022/05/27 00:17:22;;;;;;;1.30;0.90;;;;;;;11.63;80.87;98143.06;6280758;28;20312;-45
2022/05/27 00:20:25;;;;;;;1.90;1.13;;;;;;;11.61;80.70;98137.91;6278274;28;20234;-44
2022/05/27 00:23:28;;;;;;;1.00;0.73;;;;;;;11.54;80.91;98136.69;6256177;28;20600;-45
2022/05/27 00:26:31;;;;;;;2.40;1.00;;;;;;;11.48;81.33;98133.69;6276888;28;20596;-45
2022/05/27 00:29:35;;;;;;;2.73;1.10;;;;;;;11.39;81.25;98129.91;6279440;28;20238;-45
2022/05/27 00:32:57;;;;;;;1.20;0.80;;;;;;;11.31;81.59;98125.22;6281435;28;20639;-45
2022/05/27 00:35:59;;;;;;;0.57;0.57;;;;;;;11.26;81.73;98131.84;6280738;28;20238;-46
2022/05/27 00:39:03;;;;;;;0.87;0.87;;;;;;;11.21;82.55;98132.16;6279021;28;20334;-46
2022/05/27 00:42:07;;;;;;;0.80;0.60;;;;;;;11.18;82.31;98132.38;6280984;28;20211;-45
2022/05/27 00:45:16;;;;;;;3.53;1.10;;;;;;;11.21;82.46;98126.03;6280666;28;20846;-47
2022/05/27 00:48:20;;;;;;;0.83;0.80;;;;;;;11.22;82.43;98123.28;6279770;28;20216;-45
2022/05/27 00:51:26;;;;;;;4.00;1.00;;;;;;;11.26;82.17;98130.03;6263474;28;20283;-44
2022/05/27 00:54:28;;;;;;;1.80;0.90;;;;;;;11.27;82.12;98112.38;6262084;28;20342;-43
2022/05/27 00:57:39;;;;;;;1.63;0.87;;;;;;;11.30;81.86;98112.13;6279415;28;20229;-46
2022/05/27 01:04:59;;;;;;;1.13;0.70;;;;;;;11.33;81.89;98106.63;6279552;28;20221;-45
2022/05/27 01:08:07;;;;;;;0.70;0.70;;;;;;;11.36;81.95;98106.41;6280201;28;20442;-47
2022/05/27 01:11:21;;;;;;;0.60;0.60;;;;;;;11.38;81.78;98100.00;6279548;28;20283;-48
2022/05/27 01:14:41;;;;;;;0.60;0.60;;;;;;;11.35;81.83;98105.56;6273160;28;20263;-49
2022/05/27 01:17:52;;;;;;;1.10;0.73;;;;;;;11.32;81.91;98102.28;6272220;28;20249;-45
2022/05/27 01:21:14;;;;;;;1.63;0.80;;;;;;;11.30;82.08;98101.56;6279665;28;20626;-49
2022/05/27 01:25:17;;;;;;;1.03;0.70;;;;;;;11.27;82.41;98099.19;6279748;28;20216;-48
2022/05/27 01:28:46;;;;;;;2.63;0.90;;;;;;;11.19;82.39;98099.72;6170802;28;20236;-44
2022/05/27 01:31:54;;;;;;;1.43;0.53;;;;;;;11.17;82.86;98106.13;6179318;28;20656;-43
2022/05/27 01:35:15;;;;;;;2.07;0.80;;;;;;;11.15;82.71;98094.81;6179065;28;20723;-43
2022/05/27 01:38:25;;;;;;;1.50;0.80;;;;;;;11.10;82.69;98101.28;6176912;28;20244;-43
2022/05/27 01:41:49;;;;;;;1.10;0.90;;;;;;;11.06;83.27;98105.13;6178312;28;20235;-44
2022/05/27 01:45:09;;;;;;;2.23;0.90;;;;;;;11.03;82.98;98101.88;6178898;28;20235;-43
2022/05/27 01:48:38;;;;;;;1.83;0.60;;;;;;;11.00;83.27;98095.00;6177660;28;20232;-43
2022/05/27 01:51:57;;;;;;;1.67;0.70;;;;;;;10.93;83.55;98096.44;6178546;28;20235;-44
2022/05/27 01:55:12;;;;;;;2.63;0.77;;;;;;;10.93;83.46;98088.50;6177526;28;20812;-43
2022/05/27 01:58:20;;;;;;;0.60;0.60;;;;;;;10.88;83.27;98088.00;6177280;28;20227;-43
2022/05/27 02:01:47;;;;;;;1.13;0.60;;;;;;;10.88;83.89;98095.91;6197841;28;20235;-44
2022/05/27 02:05:06;;;;;;;0.90;0.70;;;;;;;10.92;83.70;98089.47;6235490;28;20595;-43
2022/05/27 02:08:17;;;;;;;2.57;0.77;;;;;;;10.94;83.62;98089.34;6252245;28;20723;-44
2022/05/27 02:11:21;;;;;;;4.37;1.07;;;;;;;10.91;83.60;98089.56;6255071;28;20230;-43
2022/05/27 02:14:37;;;;;;;2.00;0.70;;;;;;;10.90;83.24;98082.59;6252948;28;20224;-44
2022/05/27 02:17:45;;;;;;;2.50;0.70;;;;;;;10.91;83.21;98085.13;6252545;28;20610;-43
2022/05/27 02:21:00;;;;;;;0.80;0.80;;;;;;;10.94;83.46;98090.19;6253669;28;20243;-43
2022/05/27 02:24:38;;;;;;;3.03;0.80;;;;;;;10.96;83.30;98075.09;6254054;28;20259;-43
2022/05/27 02:28:14;;;;;;;1.40;0.57;;;;;;;10.94;83.13;98081.44;6268184;28;20237;-44
2022/05/27 02:31:22;;;;;;;0.70;0.70;;;;;;;10.90;83.28;98083.44;6254669;28;20283;-43
2022/05/27 02:37:56;;;;;;;2.13;0.87;;;;;;;10.83;83.84;98081.41;6277976;28;20313;-43
2022/05/27 02:41:26;;;;;;;1.03;0.80;;;;;;;10.85;83.79;98092.69;6276561;28;20221;-45
2022/05/27 02:44:55;;;;;;;1.50;1.00;;;;;;;10.85;83.58;98087.41;6277868;28;20634;-44
2022/05/27 02:48:38;;;;;;;1.20;0.80;;;;;;;10.87;83.79;98090.78;6275604;28;20274;-43
2022/05/27 02:52:02;;;;;;;1.10;0.70;;;;;;;10.94;83.47;98090.19;6273375;28;20232;-43
2022/05/27 02:55:15;;;;;;;0.80;0.80;;;;;;;10.95;83.52;98094.53;6270105;28;20769;-43
2022/05/27 02:58:17;;;;;;;3.10;0.90;;;;;;;10.99;83.80;98084.56;6257513;28;20222;-43
2022/05/27 03:01:20;;;;;;;1.30;0.80;;;;;;;11.00;83.46;98092.38;6278059;28;20339;-43
2022/05/27 03:04:22;;;;;;;0.77;0.77;;;;;;;11.01;83.52;98094.06;6278108;28;20239;-43
2022/05/27 03:07:47;;;;;;;1.63;0.80;;;;;;;10.98;83.47;98096.09;6278141;28;20229;-43
2022/05/27 03:11:15;;;;;;;1.13;0.63;;;;;;;10.99;83.86;98101.25;6277359;28;20261;-44
2022/05/27 03:14:17;;;;;;;0.80;0.80;;;;;;;10.98;83.76;98099.56;6278392;28;20231;-45
2022/05/27 03:17:48;;;;;;;2.20;0.97;;;;;;;10.97;84.08;98097.91;6277968;28;20278;-43
2022/05/27 03:21:08;;;;;;;0.60;0.60;;;;;;;10.95;84.06;98093.69;6276767;28;20236;-44
2022/05/27 03:24:18;;;;;;;1.40;0.90;;;;;;;10.99;83.94;98089.84;6277530;28;20232;-44
2022/05/27 03:27:28;;;;;;;1.33;0.70;;;;;;;11.02;83.75;98087.81;6275541;28;20239;-45
2022/05/27 03:30:46;;;;;;;1.93;0.90;;;;;;;11.07;83.91;98085.69;6278119;28;20700;-43
2022/05/27 03:34:06;;;;;;;1.63;0.80;;;;;;;11.10;83.93;98087.22;6276787;28;20256;-44
2022/05/27 03:37:17;;;;;;;0.90;0.90;;;;;;;11.18;83.70;98087.47;6276192;28;20276;-44
2022/05/27 03:40:34;;;;;;;0.70;0.70;;;;;;;11.28;83.50;98088.47;6278960;28;20489;-44
2022/05/27 03:43:37;;;;;;;1.10;0.97;;;;;;;11.37;83.62;98086.94;6280765;28;20615;-43
2022/05/27 03:46:39;;;;;;;0.80;0.80;;;;;;;11.48;83.19;98091.41;6281410;28;20243;-46
2022/05/27 03:49:42;;;;;;;0.60;0.60;;;;;;;11.56;83.05;98086.34;6279743;28;20237;-45
2022/05/27 03:52:47;;;;;;;1.43;0.80;;;;;;;11.64;82.90;98086.59;6282230;28;20313;-45
2022/05/27 03:55:49;;;;;;;0.60;0.60;;;;;;;11.72;82.75;98085.03;6284728;28;20283;-46
2022/05/27 03:58:51;;;;;;;2.20;0.93;;;;;;;11.77;82.72;98082.91;6281628;28;20225;-44
2022/05/27 04:01:56;;;;;;;1.57;1.03;;;;;;;11.90;82.66;98074.00;6285041;28;20234;-43
2022/05/27 04:04:58;;;;;;;2.00;0.97;;;;;;;12.00;82.44;98077.59;6280235;28;20234;-43
2022/05/27 04:08:02;;;;;;;1.50;0.73;;;;;;;12.08;82.11;98078.66;6279067;28;20228;-44
2022/05/27 04:11:04;;;;;;;0.70;0.70;;;;;;;12.21;81.77;98081.16;6279880;28;20716;-44
2022/05/27 04:14:06;;;;;;;0.80;0.77;;;;;;;12.34;81.67;98086.31;6280726;28;20360;-45
2022/05/27 04:20:29;;;;;;;2.13;0.90;;;;;;;12.56;81.81;98080.97;6251970;28;20236;-46
2022/05/27 04:23:31;;;;;;;4.30;0.87;;;;;;;12.69;81.16;98084.25;6274211;28;20720;-43
2022/05/27 04:26:35;;;;;;;1.17;0.77;;;;;;;12.82;80.67;98078.78;6279116;28;20248;-43
2022/05/27 04:29:40;;;;;;;1.87;0.90;;;;;;;13.03;79.69;98078.81;6279051;28;20786;-47
2022/05/27 04:32:42;;;;;;;0.90;0.70;;;;;;;13.24;78.92;98079.69;6279562;28;20240;-44
2022/05/27 04:35:44;;;;;;;1.23;0.83;;;;;;;13.35;78.19;98076.97;6262502;28;20315;-44
2022/05/27 04:38:47;;;;;;;0.80;0.70;;;;;;;13.48;78.49;98082.91;6280069;28;20626;-44
2022/05/27 04:41:49;;;;;;;3.33;1.00;;;;;;;13.53;77.86;98074.56;6279405;28;20743;-47
2022/05/27 04:44:52;;;;;;;3.03;0.87;;;;;;;13.51;78.07;98068.53;6279871;28;20605;-46
2022/05/27 04:47:55;;;;;;;1.57;0.63;;;;;;;13.54;77.19;98074.44;6280723;28;20235;-44
2022/05/27 04:50:58;;;;;;;0.80;0.80;;;;;;;13.57;77.41;98070.69;6279657;28;20604;-48
2022/05/27 04:54:00;;;;;;;2.77;1.10;;;;;;;13.55;78.01;98067.31;6280642;28;20709;-44
2022/05/27 04:57:03;;;;;;;1.30;0.80;;;;;;;13.49;77.92;98073.13;6260857;28;20242;-46
2022/05/27 05:00:10;;;;;;;1.40;0.90;;;;;;;13.47;78.43;98072.44;6279600;28;20287;-44
2022/05/27 05:03:13;;;;;;;1.43;0.70;;;;;;;13.44;77.94;98072.69;6277462;28;20206;-44
2022/05/27 05:06:15;;;;;;;2.23;0.67;;;;;;;13.42;78.32;98062.22;6279477;28;20504;-45
2022/05/27 05:09:17;;;;;;;0.73;0.73;;;;;;;13.41;78.07;98062.34;6279184;28;20234;-43
2022/05/27 05:12:22;;;;;;;2.07;0.90;;;;;;;13.34;78.71;98055.91;6278856;28;20309;-45
2022/05/27 05:15:26;;;;;;;1.70;1.00;;;;;;;13.34;78.43;98047.94;6279009;28;20681;-46
2022/05/27 05:18:28;;;;;;;1.13;0.70;;;;;;;13.45;77.87;98050.53;6279380;28;20234;-44
2022/05/27 05:21:30;;;;;;;1.87;1.00;;;;;;;13.58;77.45;98054.59;6278054;28;20229;-44
2022/05/27 05:24:33;;;;;;;1.33;0.73;;;;;;;13.63;77.21;98044.47;6281833;28;20234;-44
2022/05/27 05:27:38;;;;;;;1.27;1.03;;;;;;;13.72;77.48;98053.44;6283234;28;20282;-44
2022/05/27 05:30:40;;;;;;;1.33;0.77;;;;;;;13.80;77.22;98050.09;6276825;28;20234;-45
2022/05/27 05:33:43;;;;;;;1.90;0.73;;;;;;;14.11;74.60;98046.44;6278062;28;20416;-43
2022/05/27 05:36:46;;;;;;;0.80;0.77;;;;;;;14.45;71.84;98035.47;6278684;28;20280;-47
2022/05/27 05:39:48;;;;;;;1.53;0.87;;;;;;;14.72;70.80;98047.09;6277221;28;20274;-45
2022/05/27 05:42:50;;;;;;;3.83;1.03;;;;;;;14.97;68.89;98037.69;6277567;28;20234;-45
2022/05/27 05:45:52;;;;;;;1.93;0.70;;;;;;;15.17;68.48;98035.88;6278421;28;20238;-48
2022/05/27 05:48:54;;;;;;;1.70;0.97;;;;;;;15.30;67.47;98040.84;6278997;28;20234;-46
2022/05/27 05:51:59;;;;;;;1.43;0.80;;;;;;;15.41;67.09;98036.22;6277894;28;20692;-48
2022/05/27 05:55:01;;;;;;;1.27;0.70;;;;;;;15.56;65.44;98023.31;6276885;28;20760;-48
2022/05/27 05:58:04;;;;;;;1.20;0.63;;;;;;;15.71;65.38;98031.66;6277389;28;20237;-44
2022/05/27 06:01:06;;;;;;;1.03;0.80;;;;;;;15.72;66.01;98031.50;6278482;28;20371;-45
2022/05/27 06:04:08;;;;;;;2.13;1.00;;;;;;;15.92;63.77;98036.75;6277276;28;20210;-45
2022/05/27 06:07:11;;;;;;;1.73;0.70;;;;;;;16.10;63.21;98033.13;6278595;28;20239;-46
2022/05/27 06:10:14;;;;;;;1.30;0.90;;;;;;;16.49;63.02;98030.22;6275691;28;20605;-46
2022/05/27 06:13:17;;;;;;;1.73;0.80;;;;;;;16.30;63.86;98030.34;6276623;28;20237;-45
2022/05/27 06:16:19;;;;;;;1.80;0.80;;;;;;;16.27;64.21;98022.69;6276862;28;20375;-45
2022/05/27 06:19:21;;;;;;;1.83;0.83;;;;;;;16.30;64.68;98031.19;6257231;28;20219;-47
2022/05/27 06:22:23;;;;;;;0.87;0.70;;;;;;;16.37;64.75;98034.91;6281012;28;20232;-49
2022/05/27 06:25:26;;;;;;;1.80;0.73;;;;;;;16.58;62.13;98030.13;6276439;28;20704;-49
2022/05/27 06:35:14;;;;;;;2.40;0.87;;;;;;;17.29;61.61;98010.56;6252889;28;20353;-47
2022/05/27 06:38:16;;;;;;;0.70;0.70;;;;;;;17.36;59.06;98011.63;6272026;28;20241;-50
2022/05/27 06:41:18;;;;;;;4.57;1.00;;;;;;;17.76;58.89;98010.22;6257389;28;20344;-48
2022/05/27 06:44:21;;;;;;;2.33;0.77;;;;;;;18.06;57.13;98010.50;6277040;28;20210;-49
2022/05/27 06:47:23;;;;;;;1.83;0.80;;;;;;;18.32;56.12;98018.41;6274061;28;20710;-49
2022/05/27 06:50:25;;;;;;;2.67;1.00;;;;;;;18.37;55.06;98004.53;6274874;28;20234;-44
2022/05/27 06:53:30;;;;;;;6.37;1.40;;;;;;;18.67;54.49;98016.47;6276403;28;20633;-42
2022/05/27 06:56:36;;;;;;;3.90;1.10;;;;;;;18.95;53.85;98007.16;6275997;28;20234;-43
2022/05/27 06:59:38;;;;;;;1.13;0.70;;;;;;;19.14;53.69;98004.13;6275390;28;20604;-44
2022/05/27 07:02:40;;;;;;;2.33;0.93;;;;;;;19.27;52.85;97992.03;6275778;28;20773;-44
2022/05/27 07:05:43;;;;;;;2.60;0.90;;;;;;;19.56;52.10;97996.88;6275132;28;20606;-44
2022/05/27 07:08:45;;;;;;;1.07;0.60;;;;;;;19.86;51.64;97990.75;6275147;28;20718;-43
2022/05/27 07:11:49;;;;;;;1.03;0.70;;;;;;;20.13;50.65;97990.28;6275085;28;20709;-41
2022/05/27 07:14:51;;;;;;;1.43;0.70;;;;;;;20.43;49.92;97982.44;6279610;28;20230;-42
2022/05/27 07:17:54;;;;;;;1.70;0.70;;;;;;;20.72;49.14;97981.72;6281253;28;20325;-41
2022/05/27 07:21:05;;;;;;;2.23;1.17;;;;;;;21.10;48.58;97982.56;6280384;28;20269;-41
2022/05/27 07:24:11;;;;;;;1.23;0.67;;;;;;;21.41;48.32;97974.38;6281728;28;20260;-41
2022/05/27 07:27:13;;;;;;;1.87;0.90;;;;;;;21.61;46.62;97979.03;6279660;28;20288;-47
2022/05/27 07:30:15;;;;;;;1.90;0.50;;;;;;;21.76;46.17;97968.25;6279869;28;20218;-41
2022/05/27 07:33:17;;;;;;;0.77;0.70;;;;;;;22.13;45.93;97988.00;6279713;28;20607;-42
2022/05/27 07:36:19;;;;;;;1.00;0.83;;;;;;;21.91;46.04;97973.63;6281090;28;20234;-41
2022/05/27 07:39:28;;;;;;;2.83;0.77;;;;;;;21.89;45.98;97973.81;6270265;28;20696;-42
2022/05/27 07:42:30;;;;;;;2.60;0.80;;;;;;;21.85;46.08;97990.53;6280810;28;20439;-42
2022/05/27 07:45:36;;;;;;;0.73;0.60;;;;;;;21.87;45.84;97978.53;6276593;28;20248;-42
2022/05/27 07:48:38;;;;;;;2.43;0.63;;;;;;;22.11;45.21;97977.44;6270850;28;20694;-44
2022/05/27 07:51:46;;;;;;;2.73;0.63;;;;;;;22.34;45.09;97985.34;6281195;28;20697;-41
2022/05/27 07:54:48;;;;;;;2.27;0.60;;;;;;;22.86;44.65;97968.91;6280594;28;20321;-42
2022/05/27 07:57:56;;;;;;;1.03;0.70;;;;;;;23.02;43.25;97976.75;6293201;28;20226;-42
2022/05/27 08:00:59;;;;;;;1.07;0.70;;;;;;;23.28;43.09;97969.88;6279739;28;20682;-41
2022/05/27 08:04:01;;;;;;;2.10;0.70;;;;;;;23.06;42.70;97963.69;6283214;28;20225;-42
2022/05/27 08:07:03;;;;;;;2.87;1.00;;;;;;;23.32;42.63;97980.06;6281674;28;20242;-43
2022/05/27 08:10:06;;;;;;;1.60;0.80;;;;;;;23.37;42.94;97939.06;6280286;28;20234;-42
2022/05/27 08:13:10;;;;;;;1.20;0.70;;;;;;;23.43;42.08;97946.38;6279161;28;20271;-43
2022/05/27 08:16:12;;;;;;;1.63;0.47;;;;;;;23.82;41.63;97927.75;6278357;28;20333;-42
2022/05/27 08:19:14;;;;;;;2.00;0.70;;;;;;;23.72;42.21;97932.69;6279572;28;20238;-42
2022/05/27 08:22:16;;;;;;;2.23;0.63;;;;;;;24.23;41.23;97926.88;6263479;28;20222;-42
2022/05/27 08:25:18;;;;;;;1.53;0.67;;;;;;;25.07;40.71;97937.16;6245085;28;20231;-43
2022/05/27 08:28:24;;;;;;;1.33;0.67;;;;;;;25.28;38.72;97934.22;6274472;28;20242;-43
2022/05/27 08:31:26;;;;;;;2.13;0.90;;;;;;;25.00;37.97;97935.31;6277066;28;20222;-44
2022/05/27 08:38:01;;;;;;;0.67;0.50;;;;;;;25.36;38.34;97942.13;6280578;28;20227;-39
2022/05/27 08:41:06;;;;;;;1.53;0.70;;;;;;;25.49;37.96;97941.25;6278484;28;20230;-39
2022/05/27 08:44:34;;;;;;;0.90;0.70;;;;;;;25.76;37.78;97936.63;6278136;28;20245;-46
2022/05/27 08:47:42;;;;;;;0.80;0.65;;;;;;;25.83;36.54;97935.59;6269397;28;20232;-41
2022/05/27 08:50:49;;;;;;;0.95;0.60;;;;;;;25.90;37.32;97932.84;6278588;28;20269;-43
2022/05/27 08:54:03;;;;;;;2.15;0.80;;;;;;;25.94;37.65;97925.97;6277466;28;20265;-42
2022/05/27 09:00:29;;;;;;;2.00;0.70;;;;;;;26.13;36.72;97916.94;6278224;28;20231;-46
2022/05/27 09:03:34;;;;;;;1.30;0.45;;;;;;;26.47;37.16;97915.72;6277491;28;20230;-42
2022/05/27 09:06:55;;;;;;;0.93;0.60;;;;;;;26.68;36.34;97920.78;6276394;28;20226;-42
2022/05/27 09:10:00;;;;;;;1.17;0.40;;;;;;;26.32;36.19;97907.91;6278190;28;20322;-42
2022/05/27 09:13:05;;;;;;;0.95;0.60;;;;;;;26.36;36.74;97911.81;6276512;28;20238;-43
2022/05/27 09:16:13;;;;;;;1.80;0.60;;;;;;;26.79;36.09;97924.66;6278036;28;20238;-46
2022/05/27 09:19:43;;;;;;;1.08;0.60;;;;;;;26.45;35.64;97907.81;6277910;28;20603;-44
2022/05/27 09:23:14;;;;;;;1.95;0.70;;;;;;;26.48;35.13;97889.47;6278046;28;20307;-46
2022/05/27 09:26:42;;;;;;;2.15;0.55;;;;;;;27.36;36.35;97887.47;6275919;28;20745;-46
2022/05/27 09:29:55;;;;;;;0.50;0.50;;;;;;;27.62;34.57;97884.50;6277024;28;20241;-45
2022/05/27 09:33:04;;;;;;;2.28;0.60;;;;;;;27.45;32.58;97867.16;6262351;28;20543;-47
2022/05/27 09:36:10;;;;;;;3.33;0.80;;;;;;;27.70;33.90;97876.06;6271647;28;20222;-46
2022/05/27 09:39:15;;;;;;;1.98;0.60;;;;;;;27.98;33.32;97877.38;6272170;28;20226;-44
2022/05/27 09:42:31;;;;;;;1.13;0.80;;;;;;;27.89;32.48;97872.28;6256484;28;20276;-44
2022/05/27 09:45:35;;;;;;;0.75;0.68;;;;;;;27.87;31.91;97860.81;6276374;28;20574;-45
2022/05/27 09:48:37;;;;;;;0.50;0.50;;;;;;;28.10;32.51;97867.41;6277715;28;20237;-44
2022/05/27 09:51:45;;;;;;;1.88;0.90;;;;;;;28.20;32.87;97849.53;6275052;28;20226;-45
2022/05/27 09:54:51;;;;;;;1.08;0.70;;;;;;;28.07;32.43;97857.00;6277301;28;20249;-46
2022/05/27 09:57:55;;;;;;;1.10;0.43;;;;;;;27.74;32.54;97860.19;6277060;28;20313;-45
2022/05/27 10:00:58;;;;;;;2.33;0.60;;;;;;;27.77;31.82;97844.25;6276691;28;20309;-43
2022/05/27 10:04:04;;;;;;;0.60;0.60;;;;;;;27.79;31.77;97855.72;6275636;28;20378;-45
2022/05/27 10:07:06;;;;;;;2.05;0.63;;;;;;;28.11;31.84;97855.50;6272886;28;20227;-46
2022/05/27 10:10:28;;;;;;;1.00;0.50;;;;;;;28.38;32.15;97840.50;6274442;28;20265;-43
2022/05/27 10:13:34;;;;;;;1.25;0.60;;;;;;;28.47;32.19;97836.38;6274035;28;20949;-45
2022/05/27 10:16:39;;;;;;;1.13;0.65;;;;;;;29.32;31.91;97844.13;6256727;28;20455;-44
2022/05/27 10:19:45;;;;;;;0.65;0.50;;;;;;;29.25;32.29;97840.69;6254089;28;20329;-45
2022/05/27 10:23:08;;;;;;;0.60;0.60;;;;;;;29.13;29.75;97838.00;6272320;28;20226;-42
2022/05/27 10:26:29;;;;;;;1.30;0.70;;;;;;;29.42;31.09;97835.38;6273141;28;20238;-43
2022/05/27 10:29:34;;;;;;;1.40;0.80;;;;;;;29.68;29.88;97818.50;6273538;28;20226;-43
2022/05/27 10:32:40;;;;;;;1.60;0.70;;;;;;;30.08;30.18;97819.31;6266220;28;20260;-43
2022/05/27 10:35:43;;;;;;;1.77;0.60;;;;;;;29.88;30.58;97804.47;6269377;28;20226;-44
2022/05/27 10:39:08;;;;;;;0.70;0.70;;;;;;;29.77;29.43;97799.91;6275949;28;20226;-48
2022/05/27 10:42:22;;;;;;;0.55;0.55;;;;;;;30.09;30.09;97801.09;6274280;28;20376;-44
2022/05/27 10:45:34;;;;;;;1.55;0.50;;;;;;;29.99;29.44;97795.47;6276698;28;20226;-44
2022/05/27 10:49:00;;;;;;;1.35;0.60;;;;;;;30.23;31.08;97783.38;6276580;28;20223;-45
2022/05/27 10:52:21;;;;;;;0.75;0.68;;;;;;;30.53;30.15;97783.09;6281407;28;20340;-46
2022/05/27 10:55:36;;;;;;;1.95;0.60;;;;;;;30.52;28.66;97773.28;6280770;28;20233;-43
2022/05/27 11:02:33;;;;;;;1.52;0.60;;;;;;;30.30;30.05;97751.38;6280891;28;20226;-44
2022/05/27 11:06:15;;;;;;;2.03;0.60;;;;;;;30.27;29.65;97760.03;6278106;28;20221;-45
2022/05/27 11:09:55;;;;;;;1.55;0.63;;;;;;;31.01;30.34;97768.00;6262466;28;20245;-46
2022/05/27 11:17:06;;;;;;;1.13;0.70;;;;;;;30.77;28.86;97751.03;6273602;28;20595;-45
2022/05/27 11:20:26;;;;;;;1.08;0.85;;;;;;;31.20;28.63;97739.38;6285543;28;20269;-46
2022/05/27 11:23:43;;;;;;;4.03;0.60;;;;;;;31.75;29.37;97731.03;6278870;28;20599;-45
2022/05/27 11:27:02;;;;;;;0.57;0.57;;;;;;;31.73;28.91;97737.84;6287301;28;20769;-47
2022/05/27 11:30:04;;;;;;;2.50;0.60;;;;;;;32.02;28.55;97733.75;6262244;28;20241;-47
2022/05/27 11:33:21;;;;;;;1.80;0.90;;;;;;;32.19;29.86;97726.28;6279657;28;20263;-44
2022/05/27 11:36:46;;;;;;;3.03;0.77;;;;;;;32.62;28.74;97722.53;6278241;28;20608;-43
2022/05/27 11:40:33;;;;;;;3.38;0.70;;;;;;;33.16;28.07;97725.03;6279487;28;20269;-47
2022/05/27 11:44:08;;;;;;;0.82;0.60;;;;;;;33.15;27.37;97703.41;6261231;28;20583;-48
2022/05/27 11:47:32;;;;;;;2.58;0.65;;;;;;;32.55;28.14;97708.25;6275667;28;20246;-48
2022/05/27 11:50:59;;;;;;;0.93;0.60;;;;;;;33.23;27.61;97692.00;6278675;28;20353;-44
2022/05/27 11:54:29;;;;;;;1.83;0.50;;;;;;;32.24;29.14;97690.81;6271849;28;20226;-44
2022/05/27 11:57:46;;;;;;;0.75;0.60;;;;;;;32.28;26.95;97682.09;6273347;28;20238;-43
2022/05/27 12:00:55;;;;;;;1.40;0.57;;;;;;;32.30;28.28;97679.94;6276619;28;20277;-48
2022/05/27 12:04:35;;;;;;;0.90;0.68;;;;;;;32.67;27.62;97677.16;6276095;28;20827;-47
2022/05/27 12:07:43;;;;;;;2.15;0.70;;;;;;;33.19;27.72;97678.00;5391478;28;10000546;-46
2022/05/27 12:10:53;;;;;;;0.85;0.70;;;;;;;33.66;27.60;97666.09;6276770;28;20463;-47
2022/05/27 12:14:15;;;;;;;1.00;0.60;;;;;;;33.64;26.36;97666.34;6280651;28;20732;-49
2022/05/27 12:17:26;;;;;;;2.58;0.70;;;;;;;33.58;26.50;97669.38;6279795;28;20655;-46
2022/05/27 12:20:33;;;;;;;0.90;0.60;;;;;;;33.49;25.99;97668.25;6272888;28;20579;-45
2022/05/27 12:23:40;;;;;;;3.10;0.82;;;;;;;33.29;26.31;97655.34;6276506;28;20608;-43
2022/05/27 12:26:43;;;;;;;1.40;0.88;;;;;;;33.14;26.47;97655.28;6273173;28;20234;-44
2022/05/27 12:29:48;;;;;;;1.80;0.80;;;;;;;33.09;26.43;97660.72;6276046;28;20286;-44
2022/05/27 12:32:50;;;;;;;1.67;0.82;;;;;;;32.48;27.57;97642.06;6273077;28;20239;-44
2022/05/27 12:36:18;;;;;;;0.77;0.75;;;;;;;32.30;28.20;97641.69;6277509;28;20238;-47
2022/05/27 12:39:26;;;;;;;2.03;0.80;;;;;;;32.44;26.97;97631.97;6275778;28;20321;-48
2022/05/27 12:42:34;;;;;;;1.88;0.70;;;;;;;32.80;26.83;97622.88;6275841;28;20333;-44
2022/05/27 12:45:46;;;;;;;0.90;0.75;;;;;;;33.45;26.42;97629.66;6275977;28;20237;-44
2022/05/27 12:48:49;;;;;;;2.42;0.75;;;;;;;33.69;26.24;97625.31;6270222;28;20237;-46
2022/05/27 12:51:51;;;;;;;2.55;0.93;;;;;;;34.20;26.27;97622.59;6276831;28;20316;-44
2022/05/27 12:54:54;;;;;;;3.42;0.65;;;;;;;33.59;26.43;97608.06;6273912;28;20265;-42
2022/05/27 13:01:27;;;;;;;0.85;0.50;;;;;;;33.08;26.32;97604.38;6275857;28;20522;-48
2022/05/27 13:04:55;;;;;;;3.38;0.60;;;;;;;32.56;26.23;97588.81;6273763;28;20311;-44
2022/05/27 13:08:10;;;;;;;1.05;0.63;;;;;;;33.12;27.22;97572.66;6277603;28;20580;-46
2022/05/27 13:11:39;;;;;;;1.08;0.70;;;;;;;33.56;26.37;97587.50;6276192;28;20254;-45
2022/05/27 13:14:46;;;;;;;0.70;0.50;;;;;;;33.17;25.93;97562.53;6268382;28;20672;-46
2022/05/27 13:18:05;;;;;;;1.10;0.68;;;;;;;33.59;26.38;97583.41;6276636;28;20283;-44
2022/05/27 13:21:19;;;;;;;2.67;0.85;;;;;;;33.52;25.88;97564.53;6278767;28;20336;-46
2022/05/27 13:24:32;;;;;;;2.30;0.70;;;;;;;33.66;26.48;97564.78;6260817;28;20261;-44
2022/05/27 13:27:41;;;;;;;1.73;0.70;;;;;;;34.03;26.54;97564.53;6251239;28;20698;-46
2022/05/27 13:30:49;;;;;;;2.42;0.60;;;;;;;34.12;25.57;97553.84;6262540;28;20225;-47
2022/05/27 13:34:07;;;;;;;1.45;0.75;;;;;;;34.00;26.24;97562.34;6256545;27;20583;-47
2022/05/27 13:37:22;;;;;;;1.00;0.65;;;;;;;33.69;26.17;97554.13;6198915;28;20224;-42
2022/05/27 13:40:34;;;;;;;2.28;0.77;;;;;;;32.95;26.96;97554.53;6199483;28;20720;-46
2022/05/27 13:43:39;;;;;;;2.60;0.50;;;;;;;33.11;26.86;97554.59;6199617;28;20353;-47
2022/05/27 13:46:45;;;;;;;1.08;0.82;;;;;;;33.68;26.53;97548.91;6200985;28;20230;-46
2022/05/27 13:49:48;;;;;;;1.02;0.55;;;;;;;34.32;25.68;97551.91;6192781;28;20298;-42
2022/05/27 13:52:50;;;;;;;0.90;0.57;;;;;;;34.91;24.09;97548.38;6200588;28;20248;-44
2022/05/27 13:55:56;;;;;;;1.85;0.70;;;;;;;34.68;24.61;97540.78;6202790;28;20247;-44
2022/05/27 13:58:58;;;;;;;7.97;1.05;;;;;;;35.60;23.97;97524.59;6198971;28;20255;-48
2022/05/27 14:02:17;;;;;;;4.13;0.60;;;;;;;36.56;22.86;97527.19;6200400;28;20236;-48
2022/05/27 14:05:26;;;;;;;3.42;0.68;;;;;;;38.51;20.43;97534.84;6199452;28;20231;-47
2022/05/27 14:08:34;;;;;;;0.93;0.60;;;;;;;39.34;18.84;97526.13;6202191;28;20303;-45
2022/05/27 14:11:36;;;;;;;2.13;1.00;;;;;;;40.65;17.86;97550.66;6199837;28;20883;-45
2022/05/27 14:14:42;;;;;;;0.98;0.80;;;;;;;40.14;17.91;97533.53;6197688;28;20239;-48
2022/05/27 14:17:47;;;;;;;1.50;0.55;;;;;;;40.20;18.13;97515.66;6199098;28;20279;-45
2022/05/27 14:24:26;;;;;;;2.30;0.70;;;;;;;42.13;16.79;97517.19;6199654;28;20241;-45
2022/05/27 14:27:31;;;;;;;1.08;0.70;;;;;;;43.30;15.84;97513.59;6200256;28;20353;-48
2022/05/27 14:30:36;;;;;;;0.95;0.65;;;;;;;43.90;14.77;97506.66;6199789;28;20232;-45
2022/05/27 14:33:43;;;;;;;2.95;0.90;;;;;;;43.85;14.96;97513.25;6198140;28;20255;-44
2022/05/27 14:36:55;;;;;;;1.98;0.68;;;;;;;43.67;14.89;97498.72;6200527;28;20306;-45
2022/05/27 14:40:11;;;;;;;2.22;0.77;;;;;;;43.35;15.14;97491.97;6197698;28;20243;-46
2022/05/27 14:43:43;;;;;;;3.35;0.60;;;;;;;43.88;14.00;97489.50;6194715;28;20854;-44
2022/05/27 14:47:06;;;;;;;3.75;1.02;;;;;;;44.57;14.82;97481.13;6184151;28;20328;-44
2022/05/27 14:50:18;;;;;;;1.60;0.75;;;;;;;43.41;14.79;97506.47;6183000;28;20723;-47
2022/05/27 14:53:20;;;;;;;0.65;0.57;;;;;;;42.82;14.85;97494.69;6180906;28;20372;-46
2022/05/27 14:56:27;;;;;;;0.70;0.60;;;;;;;43.38;14.53;97488.50;6179666;28;20226;-46
2022/05/27 14:59:35;;;;;;;0.85;0.60;;;;;;;44.05;14.18;97480.97;6182139;28;20229;-46
2022/05/27 15:02:37;;;;;;;1.30;0.60;;;;;;;43.68;13.87;97491.19;6181960;28;20704;-45
2022/05/27 15:05:39;;;;;;;1.05;0.60;;;;;;;43.05;13.95;97494.00;6182519;28;20227;-46
2022/05/27 15:08:43;;;;;;;0.68;0.60;;;;;;;43.32;14.75;97481.56;6181431;28;20236;-48
2022/05/27 15:11:45;;;;;;;1.33;0.50;;;;;;;43.15;14.44;97469.72;6183280;28;20233;-47
2022/05/27 15:14:49;;;;;;;0.70;0.70;;;;;;;43.32;14.21;97462.09;6180700;28;20233;-44
2022/05/27 15:18:02;;;;;;;2.47;0.52;;;;;;;43.82;14.46;97457.50;6183010;28;20237;-46
2022/05/27 15:21:09;;;;;;;2.13;0.88;;;;;;;43.18;14.40;97450.44;6168773;28;20629;-46
2022/05/27 15:24:22;;;;;;;0.98;0.60;;;;;;;42.97;14.67;97466.28;6171806;28;20308;-48
2022/05/27 15:34:16;;;;;;;0.98;0.63;;;;;;;42.15;15.19;97443.56;6173877;28;20245;-46
2022/05/27 15:37:18;;;;;;;1.80;0.50;;;;;;;43.05;15.30;97441.19;6182245;28;20344;-45
2022/05/27 15:40:20;;;;;;;2.15;0.70;;;;;;;42.75;14.81;97452.69;6181475;28;20292;-47